Currently 67°F in Perris, California, USA
67°F
71°F / 67°F
3 mph SE
0.00"
Thursday, July 20, 2017 5:39 AM PDT

Perris, California Weather Summary
Last 36 Hours

Temperature Winds Hourly Humidity Dewpoint
Time Report Norm Report Norm Max Gusts Precip. Rpt. Norm Rpt. Norm Pressure
1Thu 05:39 AM  67.0°F  66°F  3 mph SE  1 mph  5 mph  0.00"  75%  75%  58°F  57°F  30.01"
3Thu 05:35 AM  66.9°F  66°F  3 mph S  1 mph  5 mph  ----  74%  75%  58°F  57°F  30.01"
Thu 05:00 AM  67.5°F  66°F  1 mph SE  1 mph  4 mph  0.00"  73%  74%  58°F  57°F  30.00"
Thu 04:00 AM  67.6°F  67°F  2 mph SE  1 mph  6 mph  0.00"  79%  72%  61°F  57°F  30.00"
Thu 03:00 AM  68.1°F  68°F  2 mph SE  1 mph  6 mph  0.00"  73%  71%  59°F  57°F  30.00"
Thu 02:00 AM  68.7°F  69°F  3 mph SE  1 mph  6 mph  0.00"  76%  68%  61°F  57°F  30.00"
Thu 01:00 AM  69.6°F  70°F  4 mph SE  1 mph  6 mph  0.00"  72%  65%  60°F  57°F  30.00"
2Thu 12:01 AM  71.0°F  71°F  4 mph SE  2 mph  5 mph  ----  72%  62%  61°F  57°F  30.00"
Thu 12:00 AM  71.0°F  71°F  4 mph S  2 mph  6 mph  0.00"  72%  62%  61°F  57°F  30.00"
Wed 11:00 PM  73.9°F  72°F  2 mph SE  2 mph  5 mph  0.00"  72%  58%  64°F  56°F  30.01"
Wed 10:00 PM  76.9°F  75°F  3 mph NW  2 mph  6 mph  0.00"  63%  53%  63°F  56°F  30.00"
Wed 09:00 PM  79.3°F  77°F  4 mph W  3 mph  10 mph  0.00"  56%  48%  62°F  55°F  29.99"
Wed 08:00 PM  82.0°F  81°F  4 mph SW  5 mph  15 mph  0.00"  52%  42%  62°F  55°F  29.96"
Wed 07:00 PM  85.7°F  85°F  7 mph NW  6 mph  15 mph  0.00"  46%  35%  62°F  53°F  29.93"
Wed 06:00 PM  89.5°F  88°F  9 mph NW  7 mph  16 mph  0.00"  43%  31%  63°F  53°F  29.91"
Wed 05:00 PM  93.5°F  91°F  4 mph W  7 mph  12 mph  0.00"  37%  29%  63°F  53°F  29.93"
Wed 04:00 PM  93.8°F  93°F  5 mph W  7 mph  9 mph  0.00"  37%  27%  63°F  53°F  29.93"
Wed 03:00 PM  90.2°F  93°F  7 mph S  6 mph  14 mph  0.00"  40%  26%  62°F  52°F  29.97"
Wed 02:00 PM  90.3°F  93°F  2 mph W  6 mph  10 mph  0.00"  40%  26%  62°F  51°F  29.98"
Wed 01:00 PM  89.0°F  91°F  2 mph SW  5 mph  9 mph  0.00"  42%  27%  62°F  51°F  30.00"
Wed 12:00 PM  85.2°F  89°F  4 mph W  4 mph  10 mph  0.00"  47%  30%  62°F  52°F  30.00"
Wed 11:00 AM  82.4°F  85°F  5 mph W  2 mph  9 mph  0.00"  49%  37%  61°F  55°F  30.00"
Wed 10:00 AM  78.1°F  80°F  5 mph E  2 mph  7 mph  0.00"  54%  47%  60°F  57°F  30.01"
Wed 09:00 AM  76.0°F  75°F  calm  1 mph  5 mph  0.00"  60%  58%  61°F  59°F  30.01"
Wed 08:00 AM  75.0°F  70°F  1 mph S  1 mph  4 mph  0.00"  66%  69%  62°F  59°F  30.01"
Wed 07:00 AM  72.1°F  66°F  calm  1 mph  3 mph  0.00"  71%  76%  62°F  57°F  30.00"
Wed 06:00 AM  71.6°F  65°F  1 mph NW  1 mph  4 mph  0.00"  73%  75%  62°F  57°F  29.99"
Wed 05:00 AM  71.6°F  66°F  1 mph W  1 mph  5 mph  0.00"  71%  74%  61°F  57°F  29.98"
Wed 04:00 AM  72.3°F  67°F  calm  1 mph  4 mph  0.00"  67%  72%  61°F  57°F  29.97"
Wed 03:00 AM  72.9°F  68°F  calm  1 mph  4 mph  0.00"  66%  71%  61°F  57°F  29.98"
Wed 02:00 AM  73.1°F  69°F  2 mph N  1 mph  5 mph  0.00"  65%  68%  60°F  57°F  29.98"
Wed 01:00 AM  73.6°F  70°F  2 mph N  1 mph  6 mph  0.00"  64%  65%  60°F  57°F  29.98"
Wed 12:00 AM  74.0°F  71°F  calm  2 mph  5 mph  0.00"  57%  62%  57°F  57°F  29.98"
Tue 11:00 PM  73.9°F  72°F  4 mph SE  2 mph  8 mph  0.00"  58%  59%  58°F  57°F  29.98"
Tue 10:00 PM  74.9°F  74°F  4 mph S  2 mph  10 mph  0.00"  58%  53%  58°F  56°F  29.99"
Tue 09:00 PM  77.0°F  77°F  4 mph S  3 mph  9 mph  0.00"  56%  48%  59°F  55°F  29.97"
Tue 08:00 PM  79.7°F  80°F  8 mph SE  5 mph  12 mph  0.00"  55%  42%  61°F  55°F  29.94"
Tue 07:00 PM  85.5°F  85°F  6 mph W  6 mph  15 mph  0.00"  44%  35%  61°F  53°F  29.93"
Tue 06:00 PM  88.7°F  88°F  7 mph SW  7 mph  16 mph  0.00"  41%  31%  62°F  53°F  29.91"

  1. Current weather data. No green row appears if the current weather data is also the high or low for the current day.
  2. High temperature for the current day.
  3. Low temperature for the current day.

The Perris, California weather pages are a service of WeatherCurrents. Perris is located in Southern California's Inland Empire, south of Riverside and north of Sun City, along the Interstate 215 freeway.
Copyright ©Thu Jul 20 05:39:58 PDT 2017  WeatherCurrents. All rights reserved. - Submit questions and comments - Privacy Policy

This page automatically refreshes every 10 minutes.